world map with KUD marked

KUD - Airport

This information may not be accurate or current and is not valid for navigation or flight planning. No warranty of fitness for any purpose is made or implied.

flag of Sabahflag of Malaysia

Donate via PayPal

Additional information is available on the NEW Great Circle Mapper

Location
City:  Kudat, Sabah, Malaysia
ICAO / IATA:WBKT / KUD

Details
Type:Airport (Aerodrome, Airfield)
Latitude:6°55'27"N (6.924167)
Longitude:116°49'51"E (116.830833)
Elevation:10 ft (3 m)
Runways:1
Longest:2395 × 59 ft (730 × 18 m)

Time
Timezone:UTC+8 (DST+10)
Local Time:

Weather
METAR:WBKT  210900Z 36004KT 320V030 9999 FEW014 SCT140 BKN270 28/24 Q1008
TAF:WBKT  (expired)

Related Locations
Nearby:
Farthest:HUW: 12388 mi / 19937 km
Humaitá, AM, BR

Find:

   beyond  
but within

Other Information
Maps:
Sources:

  


 


Great Circle Mapper   Great Circle Mapper
Great Circle Mapper FAQ   Great Circle Mapper FAQ
  Karl's Home Page
KLS˛   KLS˛ Home
   GC on Facebook
Airlines of the World   Airlines of the World
Donate via PayPal


Copyright © 2004-2019, Karl L. Swartz. All rights reserved.
All trademarks mentioned herein belong to their respective owners.

Please see credits for attribution and copyright information.

Karl Swartz <karl@kls2.com>
  Powered by FreeBSD
Valid HTML 4.01!
Labeled with ICRA
hCard Microformat
Geo Microformat